地図

経路データ

SID SEASON NUMBER BASIN SUBBASIN NAME ISO_TIME NATURE LAT LON WMO_WIND WMO_PRES WMO_AGENCY TRACK_TYPE DIST2LAND LANDFALL IFLAG USA_AGENCY USA_ATCF_ID USA_LAT USA_LON USA_RECORD USA_STATUS USA_WIND USA_PRES USA_SSHS USA_R34_NE USA_R34_SE USA_R34_SW USA_R34_NW USA_R50_NE USA_R50_SE USA_R50_SW USA_R50_NW USA_R64_NE USA_R64_SE USA_R64_SW USA_R64_NW USA_POCI USA_ROCI USA_RMW USA_EYE TOKYO_LAT TOKYO_LON TOKYO_GRADE TOKYO_WIND TOKYO_PRES TOKYO_R50_DIR TOKYO_R50_LONG TOKYO_R50_SHORT TOKYO_R30_DIR TOKYO_R30_LONG TOKYO_R30_SHORT TOKYO_LAND CMA_LAT CMA_LON CMA_CAT CMA_WIND CMA_PRES HKO_LAT HKO_LON HKO_CAT HKO_WIND HKO_PRES NEWDELHI_LAT NEWDELHI_LON NEWDELHI_GRADE NEWDELHI_WIND NEWDELHI_PRES NEWDELHI_CI NEWDELHI_DP NEWDELHI_POCI REUNION_LAT REUNION_LON REUNION_TYPE REUNION_WIND REUNION_PRES REUNION_TNUM REUNION_CI REUNION_RMW REUNION_R34_NE REUNION_R34_SE REUNION_R34_SW REUNION_R34_NW REUNION_R50_NE REUNION_R50_SE REUNION_R50_SW REUNION_R50_NW REUNION_R64_NE REUNION_R64_SE REUNION_R64_SW REUNION_R64_NW BOM_LAT BOM_LON BOM_TYPE BOM_WIND BOM_PRES BOM_TNUM BOM_CI BOM_RMW BOM_R34_NE BOM_R34_SE BOM_R34_SW BOM_R34_NW BOM_R50_NE BOM_R50_SE BOM_R50_SW BOM_R50_NW BOM_R64_NE BOM_R64_SE BOM_R64_SW BOM_R64_NW BOM_ROCI BOM_POCI BOM_EYE BOM_POS_METHOD BOM_PRES_METHOD NADI_LAT NADI_LON NADI_CAT NADI_WIND NADI_PRES WELLINGTON_LAT WELLINGTON_LON WELLINGTON_WIND WELLINGTON_PRES DS824_LAT DS824_LON DS824_STAGE DS824_WIND DS824_PRES TD9636_LAT TD9636_LON TD9636_STAGE TD9636_WIND TD9636_PRES TD9635_LAT TD9635_LON TD9635_WIND TD9635_PRES TD9635_ROCI NEUMANN_LAT NEUMANN_LON NEUMANN_CLASS NEUMANN_WIND NEUMANN_PRES MLC_LAT MLC_LON MLC_CLASS MLC_WIND MLC_PRES USA_GUST BOM_GUST BOM_GUST_PER REUNION_GUST REUNION_GUST_PER USA_SEAHGT USA_SEARAD_NE USA_SEARAD_SE USA_SEARAD_SW USA_SEARAD_NW STORM_SPEED STORM_DIR
1959203N16240 1959 50 EP MM NOT_NAMED 1959-07-22 00:00:00 TS 16.3000 -120.200 45 hurdat_epa main 1261 1261 O________OO___ hurdat_epa EP041959 16.3000 -120.200 TS 45 0 16.3000 -120.200 TC 45 16.3000 -120.200 2 4 270
1959203N16240 1959 50 EP MM NOT_NAMED 1959-07-22 03:00:00 TS 16.3004 -120.382 main 1275 1275 P________PP___ EP041959 16.3026 -120.387 TS 45 0 16.3026 -120.387 TC 45 16.2912 -120.363 2 4 270
1959203N16240 1959 50 EP MM NOT_NAMED 1959-07-22 06:00:00 TS 16.2972 -120.594 45 hurdat_epa main 1289 1289 O________OP___ hurdat_epa EP041959 16.3000 -120.600 TS 45 0 16.3000 -120.600 TC 45 16.2861 -120.570 2 5 269
1959203N16240 1959 50 EP MM NOT_NAMED 1959-07-22 09:00:00 TS 16.2913 -120.874 main 1311 1311 P________PP___ EP041959 16.2922 -120.875 TS 45 0 16.2922 -120.875 TC 45 16.2879 -120.867 2 7 270
1959203N16240 1959 50 EP MM NOT_NAMED 1959-07-22 12:00:00 TS 16.3000 -121.300 45 hurdat_epa main 1340 1340 O________OO___ hurdat_epa EP041959 16.3000 -121.300 TS 45 0 16.3000 -121.300 TC 45 16.3000 -121.300 2 10 272
1959203N16240 1959 50 EP MM NOT_NAMED 1959-07-22 15:00:00 TS 16.3335 -121.943 main 1385 1385 P________PP___ EP041959 16.3353 -121.955 TS 45 0 16.3353 -121.955 TC 45 16.3264 -121.893 2 13 274
1959203N16240 1959 50 EP MM NOT_NAMED 1959-07-22 18:00:00 TS 16.3954 -122.678 45 hurdat_epa main 1439 1439 O________OP___ hurdat_epa EP041959 16.4000 -122.700 TS 45 0 16.4000 -122.700 TC 45 16.3770 -122.591 2 14 276
1959203N16240 1959 50 EP MM NOT_NAMED 1959-07-22 21:00:00 TS 16.4687 -123.368 main 1488 1488 P________PP___ EP041959 16.4699 -123.380 TS 45 0 16.4699 -123.380 TC 45 16.4639 -123.318 2 13 279
1959203N16240 1959 50 EP MM NOT_NAMED 1959-07-23 00:00:00 TS 16.6000 -124.000 45 hurdat_epa main 1530 1530 O________OO___ hurdat_epa EP041959 16.6000 -124.000 TS 45 0 16.6000 -124.000 TC 45 16.6000 -124.000 2 12 288
1959203N16240 1959 50 EP MM NOT_NAMED 1959-07-23 03:00:00 TS 16.8247 -124.528 main 1558 1557 P________PP___ EP041959 16.8273 -124.530 TS 45 0 16.8273 -124.530 TC 45 16.8146 -124.520 2 11 297
1959203N16240 1959 50 EP MM NOT_NAMED 1959-07-23 06:00:00 TS 17.0952 -124.997 45 hurdat_epa main 1566 1565 O________OP___ hurdat_epa EP041959 17.1000 -125.000 TS 45 0 17.1000 -125.000 TC 45 17.0758 -124.987 2 10 301
1959203N16240 1959 50 EP MM NOT_NAMED 1959-07-23 09:00:00 TS 17.3556 -125.441 main 1568 1568 P________PP___ EP041959 17.3572 -125.443 TS 45 0 17.3572 -125.443 TC 45 17.3491 -125.436 2 10 300
1959203N16240 1959 50 EP MM NOT_NAMED 1959-07-23 12:00:00 TS 17.6000 -125.900 45 hurdat_epa main 1587 1586 O________OO___ hurdat_epa EP041959 17.6000 -125.900 TS 45 0 17.6000 -125.900 TC 45 17.6000 -125.900 2 11 296
1959203N16240 1959 50 EP MM NOT_NAMED 1959-07-23 15:00:00 TS 17.8203 -126.439 main 1607 1607 P________PP___ EP041959 17.8225 -126.435 TS 45 0 17.8225 -126.435 TC 45 17.8116 -126.457 2 11 291
1959203N16240 1959 50 EP MM NOT_NAMED 1959-07-23 18:00:00 TS 17.9981 -127.006 45 hurdat_epa main 1637 1637 O________OP___ hurdat_epa EP041959 18.0000 -127.000 TS 45 0 18.0000 -127.000 TC 45 17.9905 -127.030 2 11 286
1959203N16240 1959 50 EP MM NOT_NAMED 1959-07-23 21:00:00 TS 18.1288 -127.576 main 1675 1675 P________PP___ EP041959 18.1300 -127.573 TS 45 0 18.1300 -127.573 TC 45 18.1241 -127.588 2 11 281
1959203N16240 1959 50 EP MM NOT_NAMED 1959-07-24 00:00:00 TS 18.2000 -128.100 45 hurdat_epa main 1708 1708 O________OO___ hurdat_epa EP041959 18.2000 -128.100 TS 45 0 18.2000 -128.100 TC 45 18.2000 -128.100 2 9 276
1959203N16240 1959 50 EP MM NOT_NAMED 1959-07-24 03:00:00 TS 18.2276 -128.525 main 1740 1740 P________PP___ EP041959 18.2298 -128.530 TS 45 0 18.2298 -128.530 TC 45 18.2186 -128.505 2 8 270
1959203N16240 1959 50 EP MM NOT_NAMED 1959-07-24 06:00:00 TS 18.1962 -128.893 45 hurdat_epa main 1772 1772 O________OP___ hurdat_epa EP041959 18.2000 -128.900 TS 45 0 18.2000 -128.900 TC 45 18.1810 -128.865 2 7 261
1959203N16240 1959 50 EP MM NOT_NAMED 1959-07-24 09:00:00 TS 18.1184 -129.231 main 1804 1804 P________PP___ EP041959 18.1223 -129.235 TS 45 0 18.1223 -129.235 TC 45 18.1030 -129.218 2 7 254
1959203N16240 1959 50 EP MM NOT_NAMED 1959-07-24 12:00:00 TS 18.0000 -129.600 45 hurdat_epa main 1844 1844 O________OO___ hurdat_epa EP041959 18.0000 -129.600 TS 45 0 18.0000 -129.600 TC 45 18.0000 -129.600 2 8 252
1959203N16240 1959 50 EP MM NOT_NAMED 1959-07-24 15:00:00 TS 17.8561 -130.077 main 1892 1892 P________PP___ EP041959 17.8500 -130.078 TS 45 0 17.8500 -130.078 TC 45 17.8806 -130.077 2 10 253
1959203N16240 1959 50 EP MM NOT_NAMED 1959-07-24 18:00:00 TS 17.7086 -130.597 45 hurdat_epa main 1948 1948 O________OP___ hurdat_epa EP041959 17.7000 -130.600 TS 45 0 17.7000 -130.600 TC 45 17.7428 -130.586 2 10 255
1959203N16240 1959 50 EP MM NOT_NAMED 1959-07-24 21:00:00 TS 17.5897 -131.112 main 1997 1997 P________PP___ EP041959 17.5850 -131.115 TS 45 0 17.5850 -131.115 TC 45 17.6086 -131.102 2 10 258
1959203N16240 1959 50 EP MM NOT_NAMED 1959-07-25 00:00:00 TS 17.5000 -131.600 45 hurdat_epa main 2046 2046 O________OO___ hurdat_epa EP041959 17.5000 -131.600 TS 45 0 17.5000 -131.600 TC 45 17.5000 -131.600 2 9 260
1959203N16240 1959 50 EP MM NOT_NAMED 1959-07-25 03:00:00 TS 17.4345 -132.018 main 2086 2086 P________PP___ EP041959 17.4348 -132.007 TS 45 0 17.4348 -132.007 TC 45 17.4334 -132.062 2 8 263
1959203N16240 1959 50 EP MM NOT_NAMED 1959-07-25 06:00:00 TS 17.4005 -132.418 45 hurdat_epa main 2121 2121 O________OP___ hurdat_epa EP041959 17.4000 -132.400 TS 45 0 17.4000 -132.400 TC 45 17.4027 -132.492 2 8 267
1959203N16240 1959 50 EP MM NOT_NAMED 1959-07-25 09:00:00 TS 17.3934 -132.848 main 2155 2155 P________PP___ EP041959 17.3928 -132.835 TS 45 0 17.3928 -132.835 TC 45 17.3956 -132.901 2 8 270
1959203N16240 1959 50 EP MM NOT_NAMED 1959-07-25 12:00:00 TS 17.4000 -133.300 45 hurdat_epa main 2199 O________OO___ hurdat_epa EP041959 17.4000 -133.300 TS 45 0 17.4000 -133.300 TC 45 17.4000 -133.300 2 9 271

IBTrACS Databaseについて

本データベースは、米国NOAAが公開する1842年以降の世界の熱帯低気圧のベストトラックデータアーカイブInternational Best Track Archive for Climate Stewardship (IBTrACS)を、ウェブで閲覧しやすい形式に変換したものです。

最終更新日:2021-10-08